Time;durP1;ratioP1;P1;durP2;ratioP2;P2;SDS_P1;SDS_P2;PMS_P1;PMS_P2;Temp;Humidity;BMP_temperature;BMP_pressure;BME280_temperature;BME280_humidity;BME280_pressure;Samples;Min_cycle;Max_cycle;Signal;HPM_P1;HPM_P2
2022/05/04 00:00:02;;;;;;;;;;;;;;;;;;5057922;28;20261;-43
2022/05/04 00:02:27;;;;;;;;;;;;;;;;;;5057736;28;19908;-43
2022/05/04 00:04:53;;;;;;;;;;;;;;;;;;5057761;28;19963;-43
2022/05/04 00:07:18;;;;;;;;;;;;;;;;;;5057708;28;19940;-43
2022/05/04 00:09:43;;;;;;;;;;;;;;;;;;5057464;28;19912;-43
2022/05/04 00:12:08;;;;;;;;;;;;;;;;;;5057635;28;19912;-44
2022/05/04 00:14:33;;;;;;;;;;;;;;;;;;5056290;28;19966;-45
2022/05/04 00:16:58;;;;;;;;;;;;;;;;;;5057063;28;19917;-43
2022/05/04 00:19:23;;;;;;;;;;;;;;;;;;5057248;28;19905;-43
2022/05/04 00:21:48;;;;;;;;;;;;;;;;;;5057394;28;20340;-43
2022/05/04 00:24:14;;;;;;;;;;;;;;;;;;5057333;28;20334;-43
2022/05/04 00:26:39;;;;;;;;;;;;;;;;;;5037272;28;19996;-43
2022/05/04 00:29:04;;;;;;;;;;;;;;;;;;5037270;28;20399;-43
2022/05/04 00:31:30;;;;;;;;;;;;;;;;;;5037130;28;20352;-43
2022/05/04 00:33:55;;;;;;;;;;;;;;;;;;5036993;28;19913;-44
2022/05/04 00:36:20;;;;;;;;;;;;;;;;;;5037135;28;20004;-43
2022/05/04 00:38:45;;;;;;;;;;;;;;;;;;5037091;28;19957;-43
2022/05/04 00:41:10;;;;;;;;;;;;;;;;;;5037286;28;19936;-43
2022/05/04 00:43:35;;;;;;;;;;;;;;;;;;5037110;28;19948;-43
2022/05/04 00:46:00;;;;;;;;;;;;;;;;;;5037148;28;19959;-43
2022/05/04 00:48:25;;;;;;;;;;;;;;;;;;5037038;28;19909;-43
2022/05/04 00:50:50;;;;;;;;;;;;;;;;;;5036943;28;19910;-43
2022/05/04 00:53:16;;;;;;;;;;;;;;;;;;5036819;28;19919;-43
2022/05/04 00:55:41;;;;;;;;;;;;;;;;;;5049529;28;20382;-43
2022/05/04 01:00:51;;;;;;;;;;;;;;;;;;5056881;28;19924;-43
2022/05/04 01:03:16;;;;;;;;;;;;;;;;;;5056645;28;19909;-44
2022/05/04 01:05:43;;;;;;;;;;;;;;;;;;5056625;28;19915;-43
2022/05/04 01:08:08;;;;;;;;;;;;;;;;;;5056368;28;19915;-43
2022/05/04 01:10:33;;;;;;;;;;;;;;;;;;5056523;28;20339;-43
2022/05/04 01:12:58;;;;;;;;;;;;;;;;;;5056504;28;19951;-43
2022/05/04 01:15:23;;;;;;;;;;;;;;;;;;5056596;28;19963;-43
2022/05/04 01:17:48;;;;;;;;;;;;;;;;;;5056461;28;20012;-43
2022/05/04 01:20:14;;;;;;;;;;;;;;;;;;5056436;28;19909;-43
2022/05/04 01:22:39;;;;;;;;;;;;;;;;;;5056479;28;19916;-43
2022/05/04 01:25:04;;;;;;;;;;;;;;;;;;5056031;28;19913;-43
2022/05/04 01:27:29;;;;;;;;;;;;;;;;;;5055534;28;19913;-44
2022/05/04 01:29:54;;;;;;;;;;;;;;;;;;5044721;22;19932;-43
2022/05/04 01:32:19;;;;;;;;;;;;;;;;;;5036317;28;19906;-43
2022/05/04 01:34:44;;;;;;;;;;;;;;;;;;5035893;28;19913;-43
2022/05/04 01:37:09;;;;;;;;;;;;;;;;;;5036034;28;20303;-43
2022/05/04 01:39:34;;;;;;;;;;;;;;;;;;5035950;28;19910;-43
2022/05/04 01:42:02;;;;;;;;;;;;;;;;;;5035826;28;19917;-43
2022/05/04 01:44:28;;;;;;;;;;;;;;;;;;5035883;28;19909;-43
2022/05/04 01:46:53;;;;;;;;;;;;;;;;;;5040776;28;20019;-44
2022/05/04 01:49:18;;;;;;;;;;;;;;;;;;5055794;28;20058;-43
2022/05/04 01:51:43;;;;;;;;;;;;;;;;;;5055817;28;19999;-43
2022/05/04 01:54:08;;;;;;;;;;;;;;;;;;5055336;28;20407;-43
2022/05/04 01:56:33;;;;;;;;;;;;;;;;;;5055360;28;20003;-44
2022/05/04 01:58:58;;;;;;;;;;;;;;;;;;5055502;28;19927;-44
2022/05/04 02:01:23;;;;;;;;;;;;;;;;;;5055615;28;19912;-44
2022/05/04 02:03:49;;;;;;;;;;;;;;;;;;5055791;28;19909;-43
2022/05/04 02:06:14;;;;;;;;;;;;;;;;;;5055520;28;19909;-43
2022/05/04 02:08:41;;;;;;;;;;;;;;;;;;5055558;28;19955;-43
2022/05/04 02:11:06;;;;;;;;;;;;;;;;;;5055567;28;19976;-44
2022/05/04 02:13:31;;;;;;;;;;;;;;;;;;5054661;28;19987;-43
2022/05/04 02:15:56;;;;;;;;;;;;;;;;;;5054053;28;20016;-43
2022/05/04 02:18:21;;;;;;;;;;;;;;;;;;5054978;28;20019;-43
2022/05/04 02:20:46;;;;;;;;;;;;;;;;;;5055163;28;19908;-43
2022/05/04 02:23:12;;;;;;;;;;;;;;;;;;5055559;28;19919;-43
2022/05/04 02:25:37;;;;;;;;;;;;;;;;;;5054708;28;19912;-43
2022/05/04 02:28:02;;;;;;;;;;;;;;;;;;5055038;28;20264;-44
2022/05/04 02:30:27;;;;;;;;;;;;;;;;;;5055003;28;19909;-43
2022/05/04 02:32:52;;;;;;;;;;;;;;;;;;5054845;28;20013;-44
2022/05/04 02:38:01;;;;;;;;;;;;;;;;;;5054495;28;19915;-43
2022/05/04 02:40:26;;;;;;;;;;;;;;;;;;5055147;28;19909;-44
2022/05/04 02:42:51;;;;;;;;;;;;;;;;;;5054993;28;19919;-43
2022/05/04 02:45:17;;;;;;;;;;;;;;;;;;5055070;28;20264;-42
2022/05/04 02:47:42;;;;;;;;;;;;;;;;;;5054560;28;20387;-44
2022/05/04 02:50:07;;;;;;;;;;;;;;;;;;5054907;28;19909;-44
2022/05/04 02:52:32;;;;;;;;;;;;;;;;;;5054723;28;19913;-43
2022/05/04 02:54:57;;;;;;;;;;;;;;;;;;5054176;28;19917;-43
2022/05/04 02:57:22;;;;;;;;;;;;;;;;;;5054899;28;19912;-44
2022/05/04 02:59:47;;;;;;;;;;;;;;;;;;5054908;28;19909;-44
2022/05/04 03:02:27;;;;;;;;;;;;;;;;;;5054902;28;19915;-44
2022/05/04 03:04:52;;;;;;;;;;;;;;;;;;5054920;28;19935;-43
2022/05/04 03:07:18;;;;;;;;;;;;;;;;;;5054823;28;20345;-44
2022/05/04 03:09:43;;;;;;;;;;;;;;;;;;5054808;28;19909;-43
2022/05/04 03:12:08;;;;;;;;;;;;;;;;;;5054844;28;19908;-43
2022/05/04 03:14:33;;;;;;;;;;;;;;;;;;5054935;28;19917;-43
2022/05/04 03:16:58;;;;;;;;;;;;;;;;;;5054784;28;19909;-43
2022/05/04 03:19:23;;;;;;;;;;;;;;;;;;5054680;28;19908;-43
2022/05/04 03:21:49;;;;;;;;;;;;;;;;;;5054768;28;19913;-44
2022/05/04 03:24:14;;;;;;;;;;;;;;;;;;5054496;28;19916;-43
2022/05/04 03:26:39;;;;;;;;;;;;;;;;;;5054484;28;20295;-44
2022/05/04 03:29:04;;;;;;;;;;;;;;;;;;5054394;28;19931;-43
2022/05/04 03:31:29;;;;;;;;;;;;;;;;;;5054827;28;19919;-43
2022/05/04 03:33:55;;;;;;;;;;;;;;;;;;5055069;28;19912;-43
2022/05/04 03:36:20;;;;;;;;;;;;;;;;;;5054944;28;19916;-43
2022/05/04 03:38:45;;;;;;;;;;;;;;;;;;5054831;28;20364;-43
2022/05/04 03:41:10;;;;;;;;;;;;;;;;;;5054852;28;19908;-43
2022/05/04 03:43:35;;;;;;;;;;;;;;;;;;5054918;28;19909;-43
2022/05/04 03:46:00;;;;;;;;;;;;;;;;;;5054692;28;20348;-43
2022/05/04 03:48:25;;;;;;;;;;;;;;;;;;5054495;28;19909;-44
2022/05/04 03:50:51;;;;;;;;;;;;;;;;;;5057740;28;19916;-44
2022/05/04 03:53:16;;;;;;;;;;;;;;;;;;5058333;28;19913;-43
2022/05/04 03:55:41;;;;;;;;;;;;;;;;;;5057752;28;19912;-43
2022/05/04 03:58:06;;;;;;;;;;;;;;;;;;5058025;28;19909;-43
2022/05/04 04:00:31;;;;;;;;;;;;;;;;;;5058061;28;19913;-43
2022/05/04 04:02:56;;;;;;;;;;;;;;;;;;5058211;28;19938;-43
2022/05/04 04:05:23;;;;;;;;;;;;;;;;;;5058132;28;20426;-43
2022/05/04 04:07:48;;;;;;;;;;;;;;;;;;5057946;28;19916;-43
2022/05/04 04:10:13;;;;;;;;;;;;;;;;;;5056761;28;20360;-44
2022/05/04 04:12:38;;;;;;;;;;;;;;;;;;5058021;28;20327;-43
2022/05/04 04:15:03;;;;;;;;;;;;;;;;;;5057871;28;19913;-43
2022/05/04 04:17:29;;;;;;;;;;;;;;;;;;5057787;28;19912;-43
2022/05/04 04:22:38;;;;;;;;;;;;;;;;;;5057686;28;20012;-43
2022/05/04 04:25:03;;;;;;;;;;;;;;;;;;5056968;28;19963;-43
2022/05/04 04:27:28;;;;;;;;;;;;;;;;;;5057601;28;19954;-43
2022/05/04 04:29:53;;;;;;;;;;;;;;;;;;5057410;28;19964;-42
2022/05/04 04:32:19;;;;;;;;;;;;;;;;;;5057512;28;19980;-43
2022/05/04 04:34:44;;;;;;;;;;;;;;;;;;5057490;28;20015;-43
2022/05/04 04:37:09;;;;;;;;;;;;;;;;;;5058021;28;19912;-43
2022/05/04 04:39:34;;;;;;;;;;;;;;;;;;5057292;28;20414;-43
2022/05/04 04:41:59;;;;;;;;;;;;;;;;;;5057429;28;20352;-43
2022/05/04 04:44:25;;;;;;;;;;;;;;;;;;5057364;28;20274;-42
2022/05/04 04:46:50;;;;;;;;;;;;;;;;;;5057060;28;20352;-43
2022/05/04 04:49:15;;;;;;;;;;;;;;;;;;5056937;28;19913;-42
2022/05/04 04:51:41;;;;;;;;;;;;;;;;;;5056994;28;19904;-42
2022/05/04 04:54:06;;;;;;;;;;;;;;;;;;5057282;28;19913;-42
2022/05/04 04:56:31;;;;;;;;;;;;;;;;;;5056707;28;19916;-43
2022/05/04 04:58:56;;;;;;;;;;;;;;;;;;5056980;28;19988;-43
2022/05/04 05:01:21;;;;;;;;;;;;;;;;;;5056220;28;19909;-44
2022/05/04 05:03:46;;;;;;;;;;;;;;;;;;5056984;28;20367;-42
2022/05/04 05:06:12;;;;;;;;;;;;;;;;;;5056915;28;19945;-44
2022/05/04 05:08:37;;;;;;;;;;;;;;;;;;5056873;28;19963;-43
2022/05/04 05:11:02;;;;;;;;;;;;;;;;;;5056723;28;19909;-42
2022/05/04 05:13:27;;;;;;;;;;;;;;;;;;5056693;28;19920;-42
2022/05/04 05:16:08;;;;;;;;;;;;;;;;;;5057089;28;19962;-43
2022/05/04 05:18:33;;;;;;;;;;;;;;;;;;5056678;28;19995;-42
2022/05/04 05:20:58;;;;;;;;;;;;;;;;;;5056672;28;19955;-42
2022/05/04 05:23:23;;;;;;;;;;;;;;;;;;5056749;28;19959;-42
2022/05/04 05:25:48;;;;;;;;;;;;;;;;;;5055294;28;19919;-43
2022/05/04 05:28:13;;;;;;;;;;;;;;;;;;5056872;28;19916;-43
2022/05/04 05:30:39;;;;;;;;;;;;;;;;;;5056780;28;20283;-42
2022/05/04 05:33:04;;;;;;;;;;;;;;;;;;5056335;28;19963;-44
2022/05/04 05:35:29;;;;;;;;;;;;;;;;;;5057035;28;19913;-43
2022/05/04 05:37:54;;;;;;;;;;;;;;;;;;5056334;28;19944;-42
2022/05/04 05:40:19;;;;;;;;;;;;;;;;;;5056427;28;19949;-43
2022/05/04 05:42:45;;;;;;;;;;;;;;;;;;5056237;28;20412;-43
2022/05/04 05:45:10;;;;;;;;;;;;;;;;;;5056127;28;19913;-42
2022/05/04 05:47:35;;;;;;;;;;;;;;;;;;5055876;28;19915;-43
2022/05/04 05:50:00;;;;;;;;;;;;;;;;;;5055775;28;20244;-43
2022/05/04 05:52:25;;;;;;;;;;;;;;;;;;5055865;28;19913;-43
2022/05/04 05:54:50;;;;;;;;;;;;;;;;;;5055364;28;19966;-43
2022/05/04 05:57:16;;;;;;;;;;;;;;;;;;5055438;28;19913;-43
2022/05/04 05:59:41;;;;;;;;;;;;;;;;;;5055640;28;19908;-43
2022/05/04 06:02:06;;;;;;;;;;;;;;;;;;5055566;28;19909;-43
2022/05/04 06:04:31;;;;;;;;;;;;;;;;;;5055826;28;19909;-43
2022/05/04 06:06:56;;;;;;;;;;;;;;;;;;5055567;28;19909;-44
2022/05/04 06:09:21;;;;;;;;;;;;;;;;;;5055481;28;19944;-43
2022/05/04 06:11:47;;;;;;;;;;;;;;;;;;5055575;28;19999;-43
2022/05/04 06:14:12;;;;;;;;;;;;;;;;;;5055254;28;19924;-43
2022/05/04 06:16:37;;;;;;;;;;;;;;;;;;5055212;28;19909;-43
2022/05/04 06:19:02;;;;;;;;;;;;;;;;;;5055130;28;19915;-43
2022/05/04 06:21:27;;;;;;;;;;;;;;;;;;5055276;28;19995;-43
2022/05/04 06:23:52;;;;;;;;;;;;;;;;;;5055072;28;20011;-43
2022/05/04 06:26:20;;;;;;;;;;;;;;;;;;5054755;28;19909;-43
2022/05/04 06:28:45;;;;;;;;;;;;;;;;;;5054976;28;20376;-43
2022/05/04 06:34:06;;;;;;;;;;;;;;;;;;5055127;28;19967;-43
2022/05/04 06:36:31;;;;;;;;;;;;;;;;;;5055027;28;19913;-43
2022/05/04 06:38:57;;;;;;;;;;;;;;;;;;5054899;28;19916;-43
2022/05/04 06:41:22;;;;;;;;;;;;;;;;;;5055102;28;20334;-43
2022/05/04 06:43:47;;;;;;;;;;;;;;;;;;5054942;28;20454;-43
2022/05/04 06:46:13;;;;;;;;;;;;;;;;;;5054740;28;19909;-43
2022/05/04 06:48:40;;;;;;;;;;;;;;;;;;5054332;28;19920;-43
2022/05/04 06:51:05;;;;;;;;;;;;;;;;;;5054796;28;20000;-43
2022/05/04 06:53:30;;;;;;;;;;;;;;;;;;5054616;28;20017;-44
2022/05/04 06:55:55;;;;;;;;;;;;;;;;;;5054428;28;19964;-43
2022/05/04 06:58:20;;;;;;;;;;;;;;;;;;5054722;28;19905;-43
2022/05/04 07:00:45;;;;;;;;;;;;;;;;;;5054729;28;19912;-43
2022/05/04 07:03:10;;;;;;;;;;;;;;;;;;5054833;28;19916;-43
2022/05/04 07:05:35;;;;;;;;;;;;;;;;;;5054599;28;20000;-43
2022/05/04 07:08:00;;;;;;;;;;;;;;;;;;5054588;28;20276;-44
2022/05/04 07:10:26;;;;;;;;;;;;;;;;;;5054730;28;19912;-43
2022/05/04 07:12:51;;;;;;;;;;;;;;;;;;5054479;28;20288;-43
2022/05/04 07:15:16;;;;;;;;;;;;;;;;;;5054768;28;20257;-44
2022/05/04 07:17:41;;;;;;;;;;;;;;;;;;5054923;28;19934;-43
2022/05/04 07:20:06;;;;;;;;;;;;;;;;;;5054844;28;19915;-43
2022/05/04 07:22:31;;;;;;;;;;;;;;;;;;5054690;28;19916;-43
2022/05/04 07:24:56;;;;;;;;;;;;;;;;;;5059299;28;19912;-43
2022/05/04 07:27:21;;;;;;;;;;;;;;;;;;5084795;28;19916;-43
2022/05/04 07:29:47;;;;;;;;;;;;;;;;;;5084332;28;19952;-43
2022/05/04 07:32:12;;;;;;;;;;;;;;;;;;5084276;28;19913;-43
2022/05/04 07:34:38;;;;;;;;;;;;;;;;;;5082925;28;20029;-43
2022/05/04 07:37:03;;;;;;;;;;;;;;;;;;5078574;28;19961;-44
2022/05/04 07:42:21;;;;;;;;;;;;;;;;;;5078680;28;19920;-43
2022/05/04 07:44:46;;;;;;;;;;;;;;;;;;5078587;28;19944;-44
2022/05/04 07:47:11;;;;;;;;;;;;;;;;;;5078401;28;19967;-43
2022/05/04 07:49:36;;;;;;;;;;;;;;;;;;5078385;28;19904;-44
2022/05/04 07:52:01;;;;;;;;;;;;;;;;;;5078154;28;19909;-44
2022/05/04 07:54:28;;;;;;;;;;;;;;;;;;5072455;28;19917;-43
2022/05/04 07:56:53;;;;;;;;;;;;;;;;;;5057526;28;19919;-43
2022/05/04 07:59:19;;;;;;;;;;;;;;;;;;5057895;28;20279;-43
2022/05/04 08:04:27;;;;;;;;;;;;;;;;;;5058091;28;19916;-43
2022/05/04 08:06:52;;;;;;;;;;;;;;;;;;5057847;28;19909;-43
2022/05/04 08:09:18;;;;;;;;;;;;;;;;;;5057660;28;19909;-43
2022/05/04 08:11:43;;;;;;;;;;;;;;;;;;5057700;28;20356;-44
2022/05/04 08:14:08;;;;;;;;;;;;;;;;;;5057684;28;20248;-44
2022/05/04 08:16:33;;;;;;;;;;;;;;;;;;5057617;28;19915;-43
2022/05/04 08:19:00;;;;;;;;;;;;;;;;;;5057732;28;19909;-43
2022/05/04 08:21:25;;;;;;;;;;;;;;;;;;5057535;28;19948;-43
2022/05/04 08:23:50;;;;;;;;;;;;;;;;;;5057613;28;19916;-43
2022/05/04 08:26:15;;;;;;;;;;;;;;;;;;5056774;28;20343;-43
2022/05/04 08:28:41;;;;;;;;;;;;;;;;;;5057281;28;19921;-44
2022/05/04 08:31:06;;;;;;;;;;;;;;;;;;5057380;28;19922;-44
2022/05/04 08:33:31;;;;;;;;;;;;;;;;;;5057478;28;19916;-44
2022/05/04 08:35:56;;;;;;;;;;;;;;;;;;5056146;28;19908;-44
2022/05/04 08:38:22;;;;;;;;;;;;;;;;;;5057291;28;19912;-44
2022/05/04 08:40:47;;;;;;;;;;;;;;;;;;5057256;28;19909;-43
2022/05/04 08:43:13;;;;;;;;;;;;;;;;;;5057175;28;19913;-43
2022/05/04 08:45:38;;;;;;;;;;;;;;;;;;5057242;28;20284;-44
2022/05/04 08:48:04;;;;;;;;;;;;;;;;;;5057294;28;19909;-44
2022/05/04 08:50:30;;;;;;;;;;;;;;;;;;5056946;28;20115;-44
2022/05/04 08:52:55;;;;;;;;;;;;;;;;;;5056948;28;20439;-44
2022/05/04 08:55:20;;;;;;;;;;;;;;;;;;5056565;28;19913;-43
2022/05/04 08:57:46;;;;;;;;;;;;;;;;;;5056896;28;19916;-43
2022/05/04 09:00:11;;;;;;;;;;;;;;;;;;5056532;28;20099;-43
2022/05/04 09:02:36;;;;;;;;;;;;;;;;;;5056371;28;19905;-44
2022/05/04 09:05:01;;;;;;;;;;;;;;;;;;5056332;28;19912;-43
2022/05/04 09:07:26;;;;;;;;;;;;;;;;;;5056580;28;19916;-45
2022/05/04 09:09:52;;;;;;;;;;;;;;;;;;5056533;28;19959;-44
2022/05/04 09:12:17;;;;;;;;;;;;;;;;;;5056487;28;20000;-45
2022/05/04 09:14:42;;;;;;;;;;;;;;;;;;5056531;28;20011;-44
2022/05/04 09:17:07;;;;;;;;;;;;;;;;;;5056300;28;19996;-44
2022/05/04 09:19:32;;;;;;;;;;;;;;;;;;5056334;28;20015;-45
2022/05/04 09:21:58;;;;;;;;;;;;;;;;;;5056551;28;20004;-45
2022/05/04 09:24:23;;;;;;;;;;;;;;;;;;5055759;28;19920;-43
2022/05/04 09:26:48;;;;;;;;;;;;;;;;;;5056343;28;19909;-43
2022/05/04 09:29:13;;;;;;;;;;;;;;;;;;5056057;28;20360;-43
2022/05/04 09:31:38;;;;;;;;;;;;;;;;;;5055964;28;20267;-43
2022/05/04 09:34:04;;;;;;;;;;;;;;;;;;5055798;28;19971;-42
2022/05/04 09:36:29;;;;;;;;;;;;;;;;;;5055677;28;19917;-44
2022/05/04 09:47:06;;;;;;;;;;;;;;;;;;5055434;28;19966;-44
2022/05/04 09:49:33;;;;;;;;;;;;;;;;;;5055400;28;19908;-44
2022/05/04 09:51:58;;;;;;;;;;;;;;;;;;5055331;28;19908;-44
2022/05/04 09:54:23;;;;;;;;;;;;;;;;;;5054755;28;19925;-43
2022/05/04 09:56:48;;;;;;;;;;;;;;;;;;5055472;28;19909;-45
2022/05/04 09:59:14;;;;;;;;;;;;;;;;;;5055440;28;19913;-43
2022/05/04 10:01:40;;;;;;;;;;;;;;;;;;5055312;28;19963;-44
2022/05/04 10:04:05;;;;;;;;;;;;;;;;;;5055268;28;19913;-45
2022/05/04 10:06:30;;;;;;;;;;;;;;;;;;5055199;28;19915;-46
2022/05/04 10:08:55;;;;;;;;;;;;;;;;;;5054940;28;19915;-44
2022/05/04 10:11:20;;;;;;;;;;;;;;;;;;5055114;28;20417;-43
2022/05/04 10:13:45;;;;;;;;;;;;;;;;;;5054847;28;20023;-44
2022/05/04 10:16:11;;;;;;;;;;;;;;;;;;5054939;28;19999;-44
2022/05/04 10:18:36;;;;;;;;;;;;;;;;;;5054869;28;20325;-43
2022/05/04 10:21:01;;;;;;;;;;;;;;;;;;5054951;28;20257;-43
2022/05/04 10:23:27;;;;;;;;;;;;;;;;;;5055049;28;19916;-44
2022/05/04 10:25:52;;;;;;;;;;;;;;;;;;5054265;28;20070;-43
2022/05/04 10:28:17;;;;;;;;;;;;;;;;;;5054538;28;19962;-44
2022/05/04 10:30:42;;;;;;;;;;;;;;;;;;5054905;28;19956;-43
2022/05/04 10:33:10;;;;;;;;;;;;;;;;;;5054534;28;20020;-43
2022/05/04 10:35:36;;;;;;;;;;;;;;;;;;5054622;28;20334;-44
2022/05/04 10:38:01;;;;;;;;;;;;;;;;;;5054663;28;19916;-44
2022/05/04 10:40:26;;;;;;;;;;;;;;;;;;5054577;28;19908;-43
2022/05/04 10:42:51;;;;;;;;;;;;;;;;;;5054777;28;19913;-43
2022/05/04 10:45:16;;;;;;;;;;;;;;;;;;5054362;28;19908;-44
2022/05/04 10:47:42;;;;;;;;;;;;;;;;;;5051805;28;19952;-44
2022/05/04 10:50:07;;;;;;;;;;;;;;;;;;5054316;28;19995;-43
2022/05/04 10:52:32;;;;;;;;;;;;;;;;;;5054176;28;20408;-45
2022/05/04 10:54:59;;;;;;;;;;;;;;;;;;5053954;28;20011;-43
2022/05/04 10:57:24;;;;;;;;;;;;;;;;;;5054195;28;19921;-43
2022/05/04 10:59:49;;;;;;;;;;;;;;;;;;5052030;28;19920;-44
2022/05/04 11:02:14;;;;;;;;;;;;;;;;;;5054252;28;19916;-43
2022/05/04 11:04:39;;;;;;;;;;;;;;;;;;5054310;28;19904;-43
2022/05/04 11:07:07;;;;;;;;;;;;;;;;;;5054223;28;20356;-44
2022/05/04 11:09:32;;;;;;;;;;;;;;;;;;5054245;28;19912;-44
2022/05/04 11:11:57;;;;;;;;;;;;;;;;;;5054252;28;19943;-44
2022/05/04 11:14:25;;;;;;;;;;;;;;;;;;5054042;28;20386;-44
2022/05/04 11:16:50;;;;;;;;;;;;;;;;;;5054169;28;19909;-44
2022/05/04 11:19:15;;;;;;;;;;;;;;;;;;5054144;28;19918;-45
2022/05/04 11:21:40;;;;;;;;;;;;;;;;;;5054077;28;19904;-44
2022/05/04 11:24:06;;;;;;;;;;;;;;;;;;5053946;28;19913;-43
2022/05/04 11:26:31;;;;;;;;;;;;;;;;;;5054064;28;19916;-44
2022/05/04 11:28:56;;;;;;;;;;;;;;;;;;5053963;28;19944;-44
2022/05/04 11:31:21;;;;;;;;;;;;;;;;;;5054429;28;19909;-43
2022/05/04 11:33:46;;;;;;;;;;;;;;;;;;5052933;28;19912;-44
2022/05/04 11:36:11;;;;;;;;;;;;;;;;;;5054157;28;19913;-43
2022/05/04 11:38:36;;;;;;;;;;;;;;;;;;5054476;28;19911;-44
2022/05/04 11:41:01;;;;;;;;;;;;;;;;;;5053619;28;19919;-44
2022/05/04 11:43:27;;;;;;;;;;;;;;;;;;5054167;28;20350;-44
2022/05/04 11:45:52;;;;;;;;;;;;;;;;;;5053955;28;20279;-44
2022/05/04 11:48:18;;;;;;;;;;;;;;;;;;5054037;28;19962;-44
2022/05/04 11:50:44;;;;;;;;;;;;;;;;;;5053912;28;19916;-45
2022/05/04 11:53:09;;;;;;;;;;;;;;;;;;5053912;28;20280;-44
2022/05/04 11:55:34;;;;;;;;;;;;;;;;;;5053697;28;19917;-44
2022/05/04 11:57:59;;;;;;;;;;;;;;;;;;5053945;28;19913;-44
2022/05/04 12:00:25;;;;;;;;;;;;;;;;;;5053722;28;20433;-44
2022/05/04 12:02:50;;;;;;;;;;;;;;;;;;5053778;28;19978;-47
2022/05/04 12:05:15;;;;;;;;;;;;;;;;;;5054048;28;19909;-44
2022/05/04 12:07:40;;;;;;;;;;;;;;;;;;5054005;28;19962;-43
2022/05/04 12:10:05;;;;;;;;;;;;;;;;;;5054677;28;19963;-44
2022/05/04 12:12:30;;;;;;;;;;;;;;;;;;5057415;28;19993;-44
2022/05/04 12:14:55;;;;;;;;;;;;;;;;;;5056145;28;19952;-45
2022/05/04 12:17:20;;;;;;;;;;;;;;;;;;5053398;28;20000;-43
2022/05/04 12:19:46;;;;;;;;;;;;;;;;;;5065435;28;20379;-44
2022/05/04 12:22:11;;;;;;;;;;;;;;;;;;5077070;28;20127;-44
2022/05/04 12:24:36;;;;;;;;;;;;;;;;;;5065269;28;20054;-43
2022/05/04 12:27:01;;;;;;;;;;;;;;;;;;5056774;28;20062;-43
2022/05/04 12:34:55;;;;;;;;;;;;;;;;;;5057008;28;20043;-44
2022/05/04 12:37:21;;;;;;;;;;;;;;;;;;5056809;28;20050;-43
2022/05/04 12:39:48;;;;;;;;;;;;;;;;;;5057049;28;19951;-45
2022/05/04 12:42:13;;;;;;;;;;;;;;;;;;5056864;28;19909;-44
2022/05/04 12:44:38;;;;;;;;;;;;;;;;;;5056793;28;20245;-44
2022/05/04 12:47:03;;;;;;;;;;;;;;;;;;5056795;28;19919;-44
2022/05/04 12:49:28;;;;;;;;;;;;;;;;;;5056630;28;19959;-45
2022/05/04 12:51:54;;;;;;;;;;;;;;;;;;5056580;28;19909;-45
2022/05/04 12:54:19;;;;;;;;;;;;;;;;;;5056206;28;20372;-44
2022/05/04 12:56:47;;;;;;;;;;;;;;;;;;5056382;28;19915;-43
2022/05/04 12:59:12;;;;;;;;;;;;;;;;;;5056552;28;20260;-44
2022/05/04 13:01:37;;;;;;;;;;;;;;;;;;5056449;28;20059;-43
2022/05/04 13:04:03;;;;;;;;;;;;;;;;;;5056501;28;20476;-44
2022/05/04 13:06:28;;;;;;;;;;;;;;;;;;5056362;28;19916;-44
2022/05/04 13:08:53;;;;;;;;;;;;;;;;;;5056255;28;19909;-44
2022/05/04 13:11:18;;;;;;;;;;;;;;;;;;5056064;28;19909;-44
2022/05/04 13:13:43;;;;;;;;;;;;;;;;;;5056043;28;19912;-44
2022/05/04 13:16:08;;;;;;;;;;;;;;;;;;5056055;28;19970;-45
2022/05/04 13:18:33;;;;;;;;;;;;;;;;;;5055811;28;19975;-45
2022/05/04 13:20:58;;;;;;;;;;;;;;;;;;5056116;28;19916;-44
2022/05/04 13:23:23;;;;;;;;;;;;;;;;;;5055211;28;19916;-44
2022/05/04 13:25:49;;;;;;;;;;;;;;;;;;5055731;28;19913;-45
2022/05/04 13:28:14;;;;;;;;;;;;;;;;;;5059875;22;19929;-44
2022/05/04 13:30:40;;;;;;;;;;;;;;;;;;5035792;28;19924;-44
2022/05/04 13:33:05;;;;;;;;;;;;;;;;;;5035425;28;19921;-44
2022/05/04 13:35:30;;;;;;;;;;;;;;;;;;5035739;28;19916;-44
2022/05/04 13:37:58;;;;;;;;;;;;;;;;;;5035006;28;20219;-44
2022/05/04 13:40:23;;;;;;;;;;;;;;;;;;5035809;28;19913;-44
2022/05/04 13:42:48;;;;;;;;;;;;;;;;;;5035647;28;19913;-44
2022/05/04 13:45:14;;;;;;;;;;;;;;;;;;5035702;28;19913;-44
2022/05/04 13:47:39;;;;;;;;;;;;;;;;;;5035447;28;19913;-44
2022/05/04 13:50:04;;;;;;;;;;;;;;;;;;5035499;28;19956;-44
2022/05/04 13:55:13;;;;;;;;;;;;;;;;;;5055281;28;19978;-43
2022/05/04 13:57:38;;;;;;;;;;;;;;;;;;5055254;28;20376;-45
2022/05/04 14:00:03;;;;;;;;;;;;;;;;;;5055241;28;19995;-43
2022/05/04 14:02:28;;;;;;;;;;;;;;;;;;5055167;28;20020;-45
2022/05/04 14:04:53;;;;;;;;;;;;;;;;;;5055340;28;19913;-43
2022/05/04 14:07:18;;;;;;;;;;;;;;;;;;5055453;28;19908;-43
2022/05/04 14:09:43;;;;;;;;;;;;;;;;;;5055173;28;19908;-44
2022/05/04 14:12:08;;;;;;;;;;;;;;;;;;5054925;28;19913;-44
2022/05/04 14:17:18;;;;;;;;;;;;;;;;;;5054889;28;19919;-44
2022/05/04 14:19:43;;;;;;;;;;;;;;;;;;5055001;28;19908;-44
2022/05/04 14:22:08;;;;;;;;;;;;;;;;;;5054906;28;19908;-44
2022/05/04 14:24:33;;;;;;;;;;;;;;;;;;5054555;28;20364;-44
2022/05/04 14:26:58;;;;;;;;;;;;;;;;;;5054522;28;20334;-43
2022/05/04 14:29:23;;;;;;;;;;;;;;;;;;5054699;28;20003;-44
2022/05/04 14:31:49;;;;;;;;;;;;;;;;;;5054571;28;19992;-44
2022/05/04 14:34:14;;;;;;;;;;;;;;;;;;5053700;28;19920;-44
2022/05/04 14:36:39;;;;;;;;;;;;;;;;;;5054736;28;19916;-44
2022/05/04 14:39:04;;;;;;;;;;;;;;;;;;5054778;28;19916;-44
2022/05/04 14:41:29;;;;;;;;;;;;;;;;;;5054688;28;19920;-44
2022/05/04 14:43:55;;;;;;;;;;;;;;;;;;5054753;28;19909;-44
2022/05/04 14:46:20;;;;;;;;;;;;;;;;;;5053225;28;19909;-44
2022/05/04 14:48:45;;;;;;;;;;;;;;;;;;5054523;28;19931;-43
2022/05/04 14:51:10;;;;;;;;;;;;;;;;;;5054410;28;20434;-43
2022/05/04 14:53:35;;;;;;;;;;;;;;;;;;5054426;28;19921;-44
2022/05/04 14:56:00;;;;;;;;;;;;;;;;;;5054009;28;19908;-44
2022/05/04 14:58:26;;;;;;;;;;;;;;;;;;5060694;28;19912;-44
2022/05/04 15:00:52;;;;;;;;;;;;;;;;;;5071294;28;20019;-44
2022/05/04 15:06:06;;;;;;;;;;;;;;;;;;5034589;28;19983;-44
2022/05/04 15:08:31;;;;;;;;;;;;;;;;;;5034524;28;20015;-43
2022/05/04 15:10:56;;;;;;;;;;;;;;;;;;5034340;28;19909;-44
2022/05/04 15:13:21;;;;;;;;;;;;;;;;;;5034433;28;19909;-44
2022/05/04 15:15:46;;;;;;;;;;;;;;;;;;5034561;28;19909;-44
2022/05/04 15:18:11;;;;;;;;;;;;;;;;;;5034219;28;19939;-44
2022/05/04 15:20:36;;;;;;;;;;;;;;;;;;5034440;28;20345;-45
2022/05/04 15:23:02;;;;;;;;;;;;;;;;;;5034384;28;20276;-43
2022/05/04 15:25:27;;;;;;;;;;;;;;;;;;5043450;28;19913;-44
2022/05/04 15:27:52;;;;;;;;;;;;;;;;;;5053245;28;19970;-45
2022/05/04 15:30:17;;;;;;;;;;;;;;;;;;5053822;28;19921;-44
2022/05/04 15:32:43;;;;;;;;;;;;;;;;;;5054021;28;19963;-44
2022/05/04 15:35:08;;;;;;;;;;;;;;;;;;5053939;28;19913;-45
2022/05/04 15:37:33;;;;;;;;;;;;;;;;;;5053971;28;20007;-46
2022/05/04 15:39:58;;;;;;;;;;;;;;;;;;5054169;28;20015;-47
2022/05/04 15:42:23;;;;;;;;;;;;;;;;;;5053568;28;20371;-45
2022/05/04 15:44:48;;;;;;;;;;;;;;;;;;5053105;28;20015;-45
2022/05/04 15:47:13;;;;;;;;;;;;;;;;;;5057478;28;19909;-45
2022/05/04 15:49:39;;;;;;;;;;;;;;;;;;5057650;28;19916;-45
2022/05/04 15:52:05;;;;;;;;;;;;;;;;;;5042936;28;19920;-44
2022/05/04 15:54:31;;;;;;;;;;;;;;;;;;5038724;28;20011;-44
2022/05/04 15:56:56;;;;;;;;;;;;;;;;;;5057465;28;20425;-44
2022/05/04 15:59:21;;;;;;;;;;;;;;;;;;5057617;28;20006;-44
2022/05/04 16:01:46;;;;;;;;;;;;;;;;;;5057437;28;20368;-45
2022/05/04 16:04:13;;;;;;;;;;;;;;;;;;5057294;28;20376;-45
2022/05/04 16:06:38;;;;;;;;;;;;;;;;;;5057447;28;19909;-44
2022/05/04 16:09:03;;;;;;;;;;;;;;;;;;5057179;28;19920;-46
2022/05/04 16:11:28;;;;;;;;;;;;;;;;;;5057439;28;20413;-45
2022/05/04 16:13:55;;;;;;;;;;;;;;;;;;5056161;28;19919;-44
2022/05/04 16:16:21;;;;;;;;;;;;;;;;;;5056990;28;19913;-45
2022/05/04 16:21:45;;;;;;;;;;;;;;;;;;5057364;28;20059;-43
2022/05/04 16:24:11;;;;;;;;;;;;;;;;;;5056836;28;19908;-45
2022/05/04 16:26:36;;;;;;;;;;;;;;;;;;5056866;28;19999;-43
2022/05/04 16:29:02;;;;;;;;;;;;;;;;;;5056991;28;19974;-44
2022/05/04 16:31:27;;;;;;;;;;;;;;;;;;5056970;28;20007;-44
2022/05/04 16:33:52;;;;;;;;;;;;;;;;;;5056726;28;20489;-43
2022/05/04 16:36:17;;;;;;;;;;;;;;;;;;5056887;28;20333;-43
2022/05/04 16:38:42;;;;;;;;;;;;;;;;;;5056886;28;19963;-44
2022/05/04 16:41:08;;;;;;;;;;;;;;;;;;5057023;28;19948;-44
2022/05/04 16:43:33;;;;;;;;;;;;;;;;;;5056241;28;19921;-44
2022/05/04 16:46:01;;;;;;;;;;;;;;;;;;5042865;28;19906;-44
2022/05/04 16:48:26;;;;;;;;;;;;;;;;;;5052806;28;19913;-43
2022/05/04 16:50:51;;;;;;;;;;;;;;;;;;5043831;28;19920;-46
2022/05/04 16:53:16;;;;;;;;;;;;;;;;;;5055097;28;19924;-46
2022/05/04 16:55:41;;;;;;;;;;;;;;;;;;5055672;28;19928;-44
2022/05/04 16:58:07;;;;;;;;;;;;;;;;;;5055175;28;19919;-44
2022/05/04 17:00:32;;;;;;;;;;;;;;;;;;5041497;28;19909;-44
2022/05/04 17:02:57;;;;;;;;;;;;;;;;;;5037333;28;20275;-44
2022/05/04 17:05:22;;;;;;;;;;;;;;;;;;5056309;28;19908;-47
2022/05/04 17:07:48;;;;;;;;;;;;;;;;;;5056494;28;20390;-46
2022/05/04 17:10:13;;;;;;;;;;;;;;;;;;5056292;28;20399;-43
2022/05/04 17:12:38;;;;;;;;;;;;;;;;;;5056193;28;19912;-44